Time;durP1;ratioP1;P1;durP2;ratioP2;P2;SDS_P1;SDS_P2;PMS_P1;PMS_P2;Temp;Humidity;BMP_temperature;BMP_pressure;BME280_temperature;BME280_humidity;BME280_pressure;Samples;Min_cycle;Max_cycle;Signal;HPM_P1;HPM_P2
2023/10/16 00:04:11;;;;;;;2.93;1.30;;;;;;;7.01;100.00;100588.35;4810294;58;1136832;-66
2023/10/16 00:09:21;;;;;;;3.93;1.70;;;;;;;7.05;100.00;100589.36;4938763;57;1137228;-68
2023/10/16 00:14:30;;;;;;;5.95;1.30;;;;;;;7.09;100.00;100590.02;4991607;58;1137002;-66
2023/10/16 00:19:33;;;;;;;3.37;1.30;;;;;;;7.10;100.00;100597.45;4992943;57;1137096;-67
2023/10/16 00:24:45;;;;;;;4.17;1.30;;;;;;;7.11;100.00;100591.25;4792450;59;1136940;-66
2023/10/16 00:29:48;;;;;;;4.53;1.33;;;;;;;7.11;100.00;100596.04;4911432;57;1136725;-67
2023/10/16 00:34:53;;;;;;;9.03;1.33;;;;;;;7.11;100.00;100602.61;4928418;58;1136825;-69
2023/10/16 00:40:00;;;;;;;9.78;1.27;;;;;;;7.12;100.00;100598.20;4902495;57;1136881;-67
2023/10/16 00:45:07;;;;;;;7.33;2.20;;;;;;;7.13;100.00;100604.69;4907563;57;1136916;-68
2023/10/16 00:50:14;;;;;;;2.65;1.27;;;;;;;7.15;100.00;100603.27;4866594;58;1136805;-69
2023/10/16 00:55:20;;;;;;;4.27;1.17;;;;;;;7.15;100.00;100605.91;4847838;57;1136903;-69
2023/10/16 01:00:26;;;;;;;5.03;1.30;;;;;;;7.14;100.00;100605.06;4907103;57;1136864;-69
2023/10/16 01:05:42;;;;;;;3.30;1.10;;;;;;;7.14;100.00;100610.78;4914192;57;1136954;-67
2023/10/16 01:10:48;;;;;;;5.07;1.50;;;;;;;7.13;100.00;100609.94;4985705;57;1136863;-69
2023/10/16 01:15:56;;;;;;;11.90;2.50;;;;;;;7.16;100.00;100620.75;4962106;57;1136778;-69
2023/10/16 01:21:05;;;;;;;4.17;1.37;;;;;;;7.15;100.00;100622.53;4914865;58;1138774;-66
2023/10/16 01:26:08;;;;;;;5.17;1.10;;;;;;;7.18;100.00;100626.27;4900594;58;1136795;-69
2023/10/16 01:31:14;;;;;;;5.30;1.22;;;;;;;7.20;100.00;100641.48;4790044;59;1136411;-67
2023/10/16 01:36:20;;;;;;;3.67;1.10;;;;;;;7.23;100.00;100649.19;4795120;59;1136878;-67
2023/10/16 01:41:26;;;;;;;3.77;1.60;;;;;;;7.25;100.00;100654.36;4798897;60;1137143;-69
2023/10/16 01:46:31;;;;;;;4.15;1.10;;;;;;;7.26;100.00;100656.91;4714253;60;1136910;-67
2023/10/16 01:51:37;;;;;;;11.57;1.35;;;;;;;7.27;100.00;100659.06;4907510;58;1136728;-69
2023/10/16 01:56:43;;;;;;;5.20;1.05;;;;;;;7.27;100.00;100661.70;4796472;58;1139383;-69
2023/10/16 02:01:49;;;;;;;14.40;1.35;;;;;;;7.28;100.00;100664.23;4717353;60;1136771;-67
2023/10/16 02:06:55;;;;;;;6.35;1.35;;;;;;;7.28;100.00;100663.39;4724468;59;1138888;-67
2023/10/16 02:12:01;;;;;;;3.95;1.50;;;;;;;7.26;100.00;100672.69;4918206;57;1136911;-69
2023/10/16 02:17:14;;;;;;;5.23;1.27;;;;;;;7.25;100.00;100669.68;4789410;60;1136747;-68
2023/10/16 02:22:16;;;;;;;7.13;1.23;;;;;;;7.26;100.00;100671.84;4913443;57;1136780;-69
2023/10/16 02:27:23;;;;;;;5.15;1.40;;;;;;;7.25;100.00;100663.57;4772109;60;1136485;-67
2023/10/16 02:32:29;;;;;;;6.10;1.03;;;;;;;7.23;100.00;100672.87;4917124;58;1137069;-66
2023/10/16 02:37:34;;;;;;;8.50;1.50;;;;;;;7.20;100.00;100668.25;4792843;60;1136663;-67
2023/10/16 02:42:40;;;;;;;3.43;1.17;;;;;;;7.18;100.00;100663.09;4790599;59;1136756;-69
2023/10/16 02:47:46;;;;;;;4.90;1.37;;;;;;;7.15;100.00;100672.50;4929673;58;1137110;-66
2023/10/16 02:52:52;;;;;;;6.20;1.17;;;;;;;7.13;100.00;100684.90;4791866;59;1136756;-67
2023/10/16 02:57:58;;;;;;;7.37;1.03;;;;;;;7.11;100.00;100689.41;4719536;59;1136805;-67
2023/10/16 03:03:06;;;;;;;4.73;1.00;;;;;;;7.05;100.00;100702.44;4737908;59;1136607;-69
2023/10/16 03:08:13;;;;;;;3.77;1.02;;;;;;;7.01;100.00;100703.59;4791097;57;1136646;-69
2023/10/16 03:13:19;;;;;;;3.53;0.90;;;;;;;6.99;100.00;100705.45;4790819;58;1136901;-67
2023/10/16 03:18:25;;;;;;;3.67;0.93;;;;;;;6.96;100.00;100720.09;4917326;58;1137225;-68
2023/10/16 03:23:30;;;;;;;4.20;1.63;;;;;;;6.91;100.00;100708.99;4927414;58;1136856;-68
2023/10/16 03:28:37;;;;;;;5.50;1.30;;;;;;;6.85;100.00;100718.58;4956234;57;1136989;-69
2023/10/16 03:33:43;;;;;;;5.00;1.27;;;;;;;6.79;100.00;100728.59;4791360;58;1136757;-69
2023/10/16 03:38:53;;;;;;;4.08;1.47;;;;;;;6.74;100.00;100734.11;4809425;59;1144331;-68
2023/10/16 03:44:14;;;;;;;5.78;1.55;;;;;;;6.70;100.00;100740.03;4792276;58;1136948;-69
2023/10/16 03:49:15;;;;;;;4.23;1.37;;;;;;;6.68;100.00;100745.00;4922304;56;1137071;-69
2023/10/16 03:54:30;;;;;;;3.45;0.75;;;;;;;6.64;100.00;100757.93;4905616;57;1136905;-68
2023/10/16 03:59:32;;;;;;;3.20;1.00;;;;;;;6.59;100.00;100750.77;4932078;58;1137468;-66
2023/10/16 04:04:39;;;;;;;5.47;2.53;;;;;;;6.54;100.00;100750.20;4818466;59;1136762;-67
2023/10/16 04:09:52;;;;;;;6.70;1.60;;;;;;;6.47;100.00;100744.44;4798254;58;1136908;-69
2023/10/16 04:15:04;;;;;;;4.83;0.80;;;;;;;6.44;100.00;100743.29;4917714;57;1136891;-67
2023/10/16 04:25:45;;;;;;;7.00;1.97;;;;;;;6.39;100.00;100740.10;4859626;57;1136759;-66
2023/10/16 04:30:39;;;;;;;3.17;1.20;;;;;;;6.38;100.00;100744.12;4912022;57;1136745;-68
2023/10/16 04:46:16;;;;;;;4.47;1.10;;;;;;;6.25;100.00;100756.64;4727522;59;1136998;-69
2023/10/16 04:51:38;;;;;;;6.35;1.30;;;;;;;6.25;100.00;100763.67;4914563;57;1137058;-68
2023/10/16 05:02:33;;;;;;;5.57;1.70;;;;;;;6.26;100.00;100759.62;4834804;57;1136666;-70
2023/10/16 05:06:49;;;;;;;4.30;1.17;;;;;;;6.25;100.00;100758.42;4755837;58;1137446;-70
2023/10/16 06:16:18;;;;;;;3.87;1.20;;;;;;;6.29;100.00;100767.80;4979050;57;1139822;-68
2023/10/16 06:21:25;;;;;;;9.80;1.83;;;;;;;6.30;100.00;100775.59;4856831;58;1136708;-70
2023/10/16 06:26:31;;;;;;;5.83;1.40;;;;;;;6.30;100.00;100785.25;4791558;58;1136788;-69
2023/10/16 06:31:49;;;;;;;4.77;1.40;;;;;;;6.32;100.00;100783.39;4826460;59;1136799;-71
2023/10/16 06:36:44;;;;;;;5.63;1.37;;;;;;;6.31;100.00;100793.05;4776026;58;1136869;-72
2023/10/16 06:41:54;;;;;;;4.23;1.37;;;;;;;6.25;100.00;100789.94;4707792;59;1137440;-69
2023/10/16 06:47:00;;;;;;;4.23;1.70;;;;;;;6.18;100.00;100795.98;4752397;59;1136783;-67
2023/10/16 06:52:12;;;;;;;4.00;1.63;;;;;;;6.18;100.00;100792.50;4768477;59;1136925;-69
2023/10/16 06:57:14;;;;;;;4.62;1.90;;;;;;;6.24;100.00;100803.53;4785019;59;1136860;-69
2023/10/16 07:02:20;;;;;;;9.38;2.08;;;;;;;6.33;100.00;100803.48;4915321;57;1136784;-66
2023/10/16 07:07:25;;;;;;;6.27;2.27;;;;;;;6.35;100.00;100809.03;4983082;57;1136763;-67
2023/10/16 07:12:50;;;;;;;10.10;2.20;;;;;;;6.36;100.00;100804.62;4837472;57;1137014;-66
2023/10/16 07:17:38;;;;;;;5.27;1.60;;;;;;;6.35;100.00;100802.47;4818007;58;1139080;-67
2023/10/16 07:22:44;;;;;;;10.80;1.87;;;;;;;6.34;100.00;100808.65;4931254;57;1136834;-70
2023/10/16 07:27:49;;;;;;;5.77;1.60;;;;;;;6.35;100.00;100808.19;4990864;57;1138992;-68
2023/10/16 07:32:58;;;;;;;8.80;1.80;;;;;;;6.34;100.00;100819.16;4982470;57;1137175;-70
2023/10/16 07:38:05;;;;;;;8.93;1.75;;;;;;;6.38;100.00;100826.87;4929985;57;1136891;-72
2023/10/16 07:43:11;;;;;;;7.43;1.77;;;;;;;6.44;100.00;100826.05;4940847;57;1136634;-72
2023/10/16 07:48:22;;;;;;;4.03;1.42;;;;;;;6.50;100.00;100829.66;4923008;57;1136757;-72
2023/10/16 07:53:28;;;;;;;6.70;2.40;;;;;;;6.63;100.00;100826.72;4898254;57;1136833;-71
2023/10/16 07:58:34;;;;;;;5.07;1.60;;;;;;;6.67;100.00;100821.69;4866181;58;1136875;-70
2023/10/16 08:03:50;;;;;;;11.73;2.43;;;;;;;6.72;100.00;100820.58;4787237;58;1137712;-69
2023/10/16 08:14:16;;;;;;;10.17;1.90;;;;;;;6.71;100.00;100827.63;4810234;57;1136737;-70
2023/10/16 08:19:24;;;;;;;5.57;2.10;;;;;;;6.73;100.00;100830.98;4816276;59;1138523;-66
2023/10/16 08:24:29;;;;;;;11.38;2.17;;;;;;;6.79;100.00;100839.84;4935115;56;1136701;-68
2023/10/16 08:29:37;;;;;;;10.60;1.50;;;;;;;6.83;100.00;100837.90;4869841;58;1138499;-69
2023/10/16 08:34:44;;;;;;;10.30;2.53;;;;;;;6.86;100.00;100838.58;4901269;58;1138963;-70
2023/10/16 08:39:50;;;;;;;13.72;3.05;;;;;;;6.92;100.00;100840.84;4865627;58;1138807;-69
2023/10/16 08:45:14;;;;;;;11.03;2.20;;;;;;;6.99;100.00;100847.92;4854706;58;1138910;-72
2023/10/16 08:50:07;;;;;;;10.00;2.40;;;;;;;7.06;100.00;100840.89;4678930;60;1139496;-73
2023/10/16 08:55:16;;;;;;;3.73;1.83;;;;;;;7.16;100.00;100844.32;4800225;59;1139108;-72
2023/10/16 09:00:30;;;;;;;9.10;2.07;;;;;;;7.30;100.00;100845.20;4833871;58;1136756;-73
2023/10/16 09:05:33;;;;;;;4.58;2.20;;;;;;;7.30;100.00;100845.20;4899991;57;1136915;-70
2023/10/16 09:10:40;;;;;;;4.20;1.40;;;;;;;7.24;100.00;100856.08;4919265;58;1136943;-65
2023/10/16 09:15:46;;;;;;;11.47;2.60;;;;;;;7.18;100.00;100860.86;4923837;57;1136699;-65
2023/10/16 09:20:56;;;;;;;5.67;1.50;;;;;;;7.20;100.00;100861.59;4821057;57;1139757;-70
2023/10/16 09:26:00;;;;;;;9.00;2.40;;;;;;;7.29;100.00;100864.55;4822638;58;1136970;-66
2023/10/16 09:31:08;;;;;;;8.75;1.67;;;;;;;7.55;100.00;100868.73;4876236;58;1136931;-68
2023/10/16 09:36:20;;;;;;;10.63;3.00;;;;;;;7.70;100.00;100873.09;4911595;57;1136704;-66
2023/10/16 09:51:48;;;;;;;10.23;3.13;;;;;;;7.80;100.00;100882.59;4817192;58;1138803;-70
2023/10/16 09:57:00;;;;;;;11.33;2.07;;;;;;;7.82;100.00;100884.66;4855090;58;1139125;-67
2023/10/16 10:02:10;;;;;;;5.65;1.87;;;;;;;7.95;100.00;100886.92;4903470;57;1138991;-68
2023/10/16 10:07:22;;;;;;;5.00;1.83;;;;;;;8.06;100.00;100892.41;4894765;57;1136860;-66
2023/10/16 10:12:47;;;;;;;4.57;1.80;;;;;;;8.06;100.00;100901.63;4800563;59;1136823;-75
2023/10/16 10:17:56;;;;;;;6.67;1.40;;;;;;;8.22;100.00;100895.80;4767359;59;1136711;-75
2023/10/16 10:23:06;;;;;;;2.63;1.50;;;;;;;8.58;100.00;100894.45;4762613;58;1138737;-69
2023/10/16 10:28:28;;;;;;;4.50;1.60;;;;;;;8.65;100.00;100886.07;4773490;59;1139172;-73
2023/10/16 10:33:51;;;;;;;3.53;1.33;;;;;;;8.60;100.00;100889.46;4875680;58;1138776;-68
2023/10/16 10:38:53;;;;;;;9.20;2.00;;;;;;;8.56;100.00;100887.95;4900596;58;1138928;-68
2023/10/16 10:44:08;;;;;;;1.98;1.30;;;;;;;8.52;100.00;100876.41;4883485;58;1139105;-68
2023/10/16 10:49:12;;;;;;;4.08;1.27;;;;;;;8.52;100.00;100889.11;4945104;57;1138992;-67
2023/10/16 10:54:20;;;;;;;6.17;1.37;;;;;;;8.59;100.00;100886.45;4901956;57;1138945;-66
2023/10/16 10:59:45;;;;;;;5.80;1.43;;;;;;;8.85;100.00;100893.19;4886687;58;1138910;-66
2023/10/16 11:04:58;;;;;;;7.27;2.10;;;;;;;9.02;100.00;100888.48;4863762;59;1139144;-68
2023/10/16 11:09:59;;;;;;;8.93;4.07;;;;;;;8.96;100.00;100890.22;4791537;58;1138883;-68
2023/10/16 11:15:15;;;;;;;14.85;5.30;;;;;;;9.00;100.00;100883.81;4877279;57;1138936;-70
2023/10/16 11:20:36;;;;;;;19.17;2.30;;;;;;;8.91;100.00;100887.50;4779375;59;1141144;-77
2023/10/16 11:25:52;;;;;;;3.03;1.20;;;;;;;8.84;100.00;100887.54;4870295;57;1140943;-78
2023/10/16 11:31:00;;;;;;;7.08;2.22;;;;;;;8.79;100.00;100882.08;4846288;58;1139677;-69
2023/10/16 11:36:07;;;;;;;5.80;1.50;;;;;;;8.78;100.00;100892.25;4907040;58;1138805;-70
2023/10/16 11:41:16;;;;;;;9.70;3.17;;;;;;;8.94;100.00;100876.28;4828245;58;1139291;-69
2023/10/16 11:46:44;;;;;;;13.93;5.27;;;;;;;9.09;100.00;100880.55;4754497;59;1138950;-70
2023/10/16 11:51:50;;;;;;;19.23;4.80;;;;;;;9.11;100.00;100877.82;4927574;57;1140765;-69
2023/10/16 11:56:59;;;;;;;7.20;2.35;;;;;;;9.42;100.00;100867.39;4950686;57;1140979;-71
2023/10/16 12:02:12;;;;;;;8.40;2.60;;;;;;;9.61;100.00;100881.05;4864493;57;1138838;-68
2023/10/16 12:07:18;;;;;;;10.05;2.47;;;;;;;9.60;100.00;100888.60;4790690;59;1138963;-82
2023/10/16 12:12:24;;;;;;;5.10;1.50;;;;;;;9.72;100.00;100888.23;4938150;57;1140919;-78
2023/10/16 12:17:31;;;;;;;13.70;2.77;;;;;;;9.69;99.94;100891.92;4912647;58;1139177;-79
2023/10/16 12:22:39;;;;;;;8.83;2.70;;;;;;;9.59;100.00;100896.15;4911182;57;1138902;-82
2023/10/16 12:27:46;;;;;;;5.83;1.50;;;;;;;9.56;100.00;100891.07;4907722;57;1139049;-75
2023/10/16 12:32:53;;;;;;;5.83;1.10;;;;;;;9.49;100.00;100891.94;4847979;58;1139364;-85
2023/10/16 12:38:04;;;;;;;6.53;2.80;;;;;;;9.56;100.00;100882.30;4871907;58;1138979;-75
2023/10/16 12:43:08;;;;;;;4.33;1.90;;;;;;;9.82;100.00;100888.81;4880183;57;1138977;-80
2023/10/16 12:48:14;;;;;;;11.33;1.73;;;;;;;10.12;100.00;100888.48;4739128;58;1138870;-76
2023/10/16 12:53:20;;;;;;;3.73;1.77;;;;;;;10.42;100.00;100889.95;4720657;59;1142983;-84
2023/10/16 12:58:28;;;;;;;5.97;1.57;;;;;;;10.53;100.00;100888.73;4657185;60;1141436;-83
2023/10/16 13:03:34;;;;;;;5.20;1.47;;;;;;;10.47;98.85;100897.09;4812301;58;1141085;-86
2023/10/16 13:08:39;;;;;;;5.47;1.20;;;;;;;10.25;99.46;100903.52;4977964;56;1138957;-78
2023/10/16 13:13:45;;;;;;;4.63;1.00;;;;;;;10.03;100.00;100905.47;4836036;59;1138900;-77
2023/10/16 13:18:58;;;;;;;5.03;1.00;;;;;;;10.03;100.00;100905.47;4808975;59;1141080;-77
2023/10/16 13:24:19;;;;;;;10.10;2.77;;;;;;;10.07;98.48;100901.67;4921203;56;1141012;-84
2023/10/16 13:29:18;;;;;;;6.73;2.23;;;;;;;10.12;99.21;100896.42;4791109;59;1140920;-82
2023/10/16 13:34:25;;;;;;;3.05;1.12;;;;;;;10.34;98.25;100900.25;4919604;56;1139067;-81
2023/10/16 13:39:38;;;;;;;7.67;2.57;;;;;;;10.65;98.12;100898.44;4903692;57;1139095;-81
2023/10/16 13:44:42;;;;;;;6.33;2.07;;;;;;;10.84;94.71;100896.63;4855504;59;1139513;-74
2023/10/16 13:49:50;;;;;;;6.13;1.43;;;;;;;10.74;94.56;100901.73;4793569;59;1139292;-73
2023/10/16 13:54:56;;;;;;;7.07;1.60;;;;;;;10.73;95.37;100909.77;4818867;59;1139011;-75
2023/10/16 14:00:02;;;;;;;5.30;1.57;;;;;;;10.64;97.01;100910.45;4818439;58;1139590;-76
2023/10/16 14:05:13;;;;;;;4.30;1.67;;;;;;;10.73;97.68;100911.94;4792612;59;1138971;-79
2023/10/16 14:10:21;;;;;;;7.47;2.07;;;;;;;10.79;97.15;100910.66;4897370;57;1138925;-73
2023/10/16 14:15:26;;;;;;;8.33;1.60;;;;;;;10.85;98.46;100909.72;4757820;59;1139102;-86
2023/10/16 14:20:34;;;;;;;2.53;1.20;;;;;;;10.96;98.54;100907.64;4833536;58;1138850;-78
2023/10/16 14:25:57;;;;;;;5.00;1.20;;;;;;;11.04;97.14;100909.72;4772121;60;1138855;-71
2023/10/16 14:30:48;;;;;;;4.70;1.93;;;;;;;11.03;95.16;100913.31;4926243;58;1138895;-73
2023/10/16 14:35:56;;;;;;;4.43;1.10;;;;;;;11.44;97.24;100912.45;4790489;59;1138805;-78
2023/10/16 14:41:09;;;;;;;7.92;1.60;;;;;;;11.85;92.33;100919.93;4790009;58;1138911;-73
2023/10/16 14:46:15;;;;;;;6.30;1.40;;;;;;;11.27;92.66;100917.67;4793632;58;1139384;-73
2023/10/16 14:51:22;;;;;;;3.90;1.30;;;;;;;11.07;93.89;100923.58;4789421;59;1138872;-73
2023/10/16 14:56:28;;;;;;;5.17;1.62;;;;;;;11.04;97.45;100927.77;4789952;60;1139202;-73
2023/10/16 15:01:36;;;;;;;4.43;2.13;;;;;;;12.02;95.19;100929.72;4815188;59;1138916;-77
2023/10/16 15:06:41;;;;;;;4.27;1.63;;;;;;;12.90;90.17;100938.14;4789608;59;1138971;-77
2023/10/16 15:11:49;;;;;;;9.93;2.53;;;;;;;12.65;89.12;100943.73;4906509;58;1138731;-78
2023/10/16 15:16:55;;;;;;;13.00;4.20;;;;;;;11.93;90.93;100949.33;4814146;59;1138972;-77
2023/10/16 15:22:02;;;;;;;3.80;1.70;;;;;;;11.39;92.91;100949.48;4791161;57;1140825;-77
2023/10/16 15:27:08;;;;;;;6.80;2.23;;;;;;;11.03;94.24;100958.31;4905267;56;1139005;-78
2023/10/16 15:32:14;;;;;;;8.58;2.12;;;;;;;10.82;95.71;100960.25;4805952;59;1138823;-83
2023/10/16 15:37:20;;;;;;;5.70;2.47;;;;;;;10.46;96.00;100968.13;4760807;60;1138811;-73
2023/10/16 15:42:26;;;;;;;8.03;2.77;;;;;;;10.18;97.14;100971.37;4790203;60;1139172;-74
2023/10/16 15:47:32;;;;;;;5.80;2.00;;;;;;;9.95;98.36;100981.29;4812657;59;1138929;-80
2023/10/16 15:52:40;;;;;;;5.67;1.83;;;;;;;9.74;98.82;100980.95;4904551;57;1136742;-76
2023/10/16 15:57:49;;;;;;;7.17;3.30;;;;;;;9.52;99.58;100997.36;4825947;59;1136875;-75
2023/10/16 16:02:58;;;;;;;5.27;2.50;;;;;;;9.34;100.00;100999.02;4787592;59;1136979;-82
2023/10/16 16:08:08;;;;;;;7.33;3.87;;;;;;;9.24;100.00;101013.30;4846523;57;1138847;-78
2023/10/16 16:13:14;;;;;;;7.20;2.37;;;;;;;9.15;100.00;101019.17;4801788;59;1138751;-77
2023/10/16 16:18:19;;;;;;;8.50;3.13;;;;;;;9.04;100.00;101012.39;4719584;59;1139896;-78
2023/10/16 16:23:25;;;;;;;10.17;2.53;;;;;;;8.91;100.00;101019.39;4922490;56;1138865;-73
2023/10/16 16:28:31;;;;;;;8.43;2.63;;;;;;;8.81;100.00;101020.45;4788193;58;1140980;-74
2023/10/16 16:33:36;;;;;;;8.57;2.60;;;;;;;8.76;100.00;101027.31;4786753;59;1139050;-73
2023/10/16 16:38:42;;;;;;;7.83;2.97;;;;;;;8.70;100.00;101033.45;4806394;60;1136776;-74
2023/10/16 16:43:48;;;;;;;13.07;3.43;;;;;;;8.57;100.00;101029.84;4789100;59;1138817;-87
2023/10/16 16:48:54;;;;;;;11.33;3.90;;;;;;;8.45;100.00;101035.41;4788012;58;1141128;-81
2023/10/16 16:54:00;;;;;;;11.13;3.80;;;;;;;8.36;100.00;101035.97;4926999;57;1141174;-78
2023/10/16 16:59:12;;;;;;;9.45;3.12;;;;;;;8.22;100.00;101031.50;4779578;59;1139221;-84
2023/10/16 17:04:16;;;;;;;9.80;3.63;;;;;;;8.14;100.00;101036.36;4750934;58;1138741;-76
2023/10/16 17:09:24;;;;;;;5.92;2.67;;;;;;;8.06;100.00;101044.73;4702240;60;1138898;-67
2023/10/16 17:14:32;;;;;;;9.10;3.27;;;;;;;8.00;100.00;101044.23;4887727;58;1136489;-73
2023/10/16 17:19:38;;;;;;;7.73;3.13;;;;;;;7.94;100.00;101044.14;4862052;57;1136829;-76
2023/10/16 17:24:44;;;;;;;9.50;3.67;;;;;;;7.85;100.00;101051.23;4842508;58;1138714;-82
2023/10/16 17:29:50;;;;;;;7.85;4.08;;;;;;;7.77;100.00;101060.06;4989729;57;1138922;-82
2023/10/16 17:34:56;;;;;;;9.53;3.57;;;;;;;7.73;100.00;101064.64;4788699;60;1136945;-70
2023/10/16 17:40:06;;;;;;;8.63;3.80;;;;;;;7.71;100.00;101063.87;4902716;57;1139431;-75
2023/10/16 17:45:09;;;;;;;7.22;3.62;;;;;;;7.73;100.00;101066.42;4810950;59;1138770;-78
2023/10/16 17:50:15;;;;;;;8.98;4.03;;;;;;;7.75;100.00;101074.63;4790973;59;1138916;-77
2023/10/16 17:55:21;;;;;;;8.17;5.00;;;;;;;7.70;100.00;101075.34;4774846;58;1138652;-83
2023/10/16 18:00:26;;;;;;;9.38;4.03;;;;;;;7.67;100.00;101074.66;4910142;56;1138772;-73
2023/10/16 18:05:33;;;;;;;7.97;3.67;;;;;;;7.64;100.00;101079.62;4809895;58;1136899;-76
2023/10/16 18:10:45;;;;;;;13.48;3.90;;;;;;;7.56;100.00;101076.59;4789914;57;1136680;-74
2023/10/16 18:15:52;;;;;;;15.83;4.90;;;;;;;7.51;100.00;101083.03;4788721;58;1140661;-79
2023/10/16 18:21:00;;;;;;;13.77;6.03;;;;;;;7.50;100.00;101082.66;4809042;59;1141101;-82
2023/10/16 18:26:05;;;;;;;13.30;5.65;;;;;;;7.43;100.00;101083.95;4914062;57;1140942;-73
2023/10/16 18:31:13;;;;;;;9.63;4.70;;;;;;;7.32;100.00;101088.03;4789972;59;1141183;-83
2023/10/16 18:36:19;;;;;;;13.57;3.97;;;;;;;7.22;100.00;101096.02;4790199;60;1136777;-81
2023/10/16 18:41:25;;;;;;;12.35;4.45;;;;;;;7.13;100.00;101090.42;4795275;58;1139236;-79
2023/10/16 18:46:31;;;;;;;11.37;5.00;;;;;;;7.06;100.00;101099.09;4813839;58;1140792;-77
2023/10/16 18:51:37;;;;;;;10.23;4.00;;;;;;;7.04;100.00;101100.95;4813671;56;1141195;-77
2023/10/16 18:56:43;;;;;;;14.93;4.43;;;;;;;6.93;100.00;101102.00;4912664;57;1141045;-73
2023/10/16 19:01:49;;;;;;;10.23;3.80;;;;;;;6.74;100.00;101097.32;4885896;58;1138935;-81
2023/10/16 19:06:55;;;;;;;6.90;2.87;;;;;;;6.60;100.00;101098.89;4859059;59;1138907;-78
2023/10/16 19:12:03;;;;;;;6.58;2.90;;;;;;;6.48;100.00;101110.05;4822631;59;1139061;-79
2023/10/16 19:17:11;;;;;;;7.40;1.70;;;;;;;6.35;100.00;101107.20;4791834;59;1136763;-75
2023/10/16 19:22:17;;;;;;;7.03;2.33;;;;;;;6.34;100.00;101106.81;4914938;57;1136928;-73
2023/10/16 19:27:22;;;;;;;8.23;2.42;;;;;;;6.31;100.00;101112.67;4792816;58;1138867;-84
2023/10/16 19:32:28;;;;;;;3.03;2.07;;;;;;;6.26;100.00;101126.52;4929443;57;1136849;-77
2023/10/16 19:37:34;;;;;;;8.13;2.43;;;;;;;6.19;100.00;101131.68;4759281;58;1136690;-73
2023/10/16 19:42:51;;;;;;;5.07;2.53;;;;;;;6.09;100.00;101126.51;4713590;60;1138922;-79
2023/10/16 19:47:56;;;;;;;6.83;2.80;;;;;;;6.11;100.00;101122.85;4721887;59;1138980;-78
2023/10/16 19:53:06;;;;;;;6.85;2.50;;;;;;;6.16;100.00;101130.05;4729336;59;1138767;-76
2023/10/16 19:58:10;;;;;;;3.42;2.47;;;;;;;6.18;100.00;101133.92;4715995;61;1138825;-76
2023/10/16 20:03:18;;;;;;;7.08;3.92;;;;;;;6.19;100.00;101137.78;4927736;57;1138947;-79
2023/10/16 20:08:25;;;;;;;7.23;5.43;;;;;;;6.19;100.00;101140.41;4900439;58;1136774;-78
2023/10/16 20:13:31;;;;;;;15.43;4.83;;;;;;;6.26;100.00;101146.22;4795216;59;1136788;-74
2023/10/16 20:18:36;;;;;;;14.27;5.87;;;;;;;6.30;100.00;101148.59;4808635;59;1138964;-78
2023/10/16 20:23:45;;;;;;;12.73;5.50;;;;;;;6.35;100.00;101154.48;4883769;56;1138701;-78
2023/10/16 20:28:51;;;;;;;17.33;7.23;;;;;;;6.39;100.00;101164.38;4790578;59;1138899;-76
2023/10/16 20:33:57;;;;;;;25.93;10.97;;;;;;;6.39;100.00;101164.84;4810786;59;1138996;-72
2023/10/16 20:39:07;;;;;;;37.90;16.52;;;;;;;6.38;100.00;101169.71;4912406;57;1140915;-73
2023/10/16 20:44:11;;;;;;;38.78;17.37;;;;;;;6.42;100.00;101175.17;4900756;58;1142851;-70
2023/10/16 20:49:17;;;;;;;45.54;20.42;;;;;;;6.46;100.00;101188.55;4809653;60;1143104;-71
2023/10/16 20:54:23;;;;;;;62.53;25.00;;;;;;;6.47;100.00;101187.63;4769781;59;1141078;-81
2023/10/16 20:59:29;;;;;;;56.27;25.37;;;;;;;6.42;100.00;101190.48;4913839;57;1140881;-76
2023/10/16 21:04:36;;;;;;;51.60;24.82;;;;;;;6.30;100.00;101188.00;4793155;59;1141249;-77
2023/10/16 21:09:42;;;;;;;64.97;28.33;;;;;;;6.24;100.00;101190.95;4808844;59;1140693;-75
2023/10/16 21:14:48;;;;;;;39.03;16.67;;;;;;;6.19;100.00;101195.56;4790445;58;1140976;-78
2023/10/16 21:19:54;;;;;;;47.60;20.00;;;;;;;6.13;100.00;101202.87;4710565;59;1141023;-77
2023/10/16 21:25:00;;;;;;;81.00;32.83;;;;;;;6.09;100.00;101202.20;4749128;59;1141107;-71
2023/10/16 21:30:06;;;;;;;92.07;41.17;;;;;;;6.06;100.00;101204.11;4789819;59;1143021;-77
2023/10/16 21:35:12;;;;;;;87.53;39.35;;;;;;;6.04;100.00;101194.99;4898575;56;1142914;-74
2023/10/16 21:40:21;;;;;;;85.58;35.40;;;;;;;6.07;100.00;101213.70;4914756;56;1140837;-70
2023/10/16 21:45:26;;;;;;;87.53;39.63;;;;;;;6.03;100.00;101209.50;4799128;59;1141052;-85
2023/10/16 21:50:31;;;;;;;77.43;31.63;;;;;;;5.99;100.00;101203.08;4804408;58;1141237;-76
2023/10/16 21:55:38;;;;;;;58.03;23.67;;;;;;;5.89;100.00;101203.59;4796589;58;1140959;-74
2023/10/16 22:01:30;;;;;;;92.80;40.13;;;;;;;5.81;100.00;101204.38;4737814;60;1140880;-71
2023/10/16 22:05:54;;;;;;;104.77;39.10;;;;;;;5.74;100.00;101212.16;4913263;58;1141166;-75
2023/10/16 22:11:00;;;;;;;52.73;22.27;;;;;;;5.69;100.00;101214.14;4908735;58;1143133;-82
2023/10/16 22:16:08;;;;;;;44.00;18.40;;;;;;;5.62;100.00;101214.44;4997202;56;1148824;-84
2023/10/16 22:21:15;;;;;;;43.70;17.98;;;;;;;5.62;100.00;101213.13;4866742;58;1143133;-69
2023/10/16 22:26:21;;;;;;;40.03;16.60;;;;;;;5.61;100.00;101212.73;4798017;59;1140946;-81
2023/10/16 22:31:27;;;;;;;25.90;13.20;;;;;;;5.60;100.00;101218.91;4994010;58;1140913;-80
2023/10/16 22:36:33;;;;;;;40.17;18.17;;;;;;;5.57;100.00;101218.18;5010609;58;1141254;-78
2023/10/16 22:41:38;;;;;;;28.83;13.07;;;;;;;5.50;100.00;101223.34;4992209;57;1140740;-85
2023/10/16 22:46:49;;;;;;;37.67;17.37;;;;;;;5.42;100.00;101223.66;4987017;57;1140915;-76
2023/10/16 22:51:53;;;;;;;37.60;18.87;;;;;;;5.31;100.00;101233.80;5011147;58;1140887;-73
2023/10/16 22:56:58;;;;;;;29.57;14.80;;;;;;;5.10;100.00;101232.95;4912187;58;1140785;-72
2023/10/16 23:02:12;;;;;;;29.10;12.77;;;;;;;4.99;100.00;101234.34;4909262;58;1141688;-83
2023/10/16 23:07:14;;;;;;;41.37;15.00;;;;;;;4.92;100.00;101229.81;4809611;59;1143124;-74
2023/10/16 23:12:34;;;;;;;40.43;17.12;;;;;;;4.92;100.00;101229.81;4956877;56;1143033;-75
2023/10/16 23:17:27;;;;;;;63.70;23.53;;;;;;;4.92;100.00;101229.81;4864399;59;1140941;-78
2023/10/16 23:22:34;;;;;;;72.47;26.90;;;;;;;4.85;100.00;101227.92;4885293;59;1140821;-80
2023/10/16 23:27:43;;;;;;;66.87;28.87;;;;;;;4.71;100.00;101228.97;4874307;58;1140842;-74
2023/10/16 23:32:50;;;;;;;51.17;21.63;;;;;;;4.70;100.00;101225.10;4791145;59;1140885;-79
2023/10/16 23:37:57;;;;;;;60.25;21.85;;;;;;;4.68;100.00;101223.85;4809369;60;1140906;-81
2023/10/16 23:48:18;;;;;;;19.67;8.60;;;;;;;4.57;100.00;101233.94;4748013;60;1141126;-77
2023/10/16 23:59:12;;;;;;;24.37;10.75;;;;;;;4.51;100.00;101221.94;4601569;62;1138971;-80
